sensor_id;sensor_type;location;lat;lon;timestamp;temperature;humidity
8633;DHT22;4354;49.832;10.746;2023-06-04T00:02:10;10.10;90.80
8633;DHT22;4354;49.832;10.746;2023-06-04T00:04:37;9.90;99.90
8633;DHT22;4354;49.832;10.746;2023-06-04T00:07:04;9.80;99.90
8633;DHT22;4354;49.832;10.746;2023-06-04T00:09:31;9.60;99.90
8633;DHT22;4354;49.832;10.746;2023-06-04T00:11:58;9.50;99.90
8633;DHT22;4354;49.832;10.746;2023-06-04T00:14:24;9.50;1.00
8633;DHT22;4354;49.832;10.746;2023-06-04T00:16:51;9.60;1.00
8633;DHT22;4354;49.832;10.746;2023-06-04T00:19:18;9.60;1.00
8633;DHT22;4354;49.832;10.746;2023-06-04T00:21:45;9.60;1.00
8633;DHT22;4354;49.832;10.746;2023-06-04T00:24:12;9.60;1.00
8633;DHT22;4354;49.832;10.746;2023-06-04T00:26:39;9.50;1.00
8633;DHT22;4354;49.832;10.746;2023-06-04T00:29:06;9.50;1.00
8633;DHT22;4354;49.832;10.746;2023-06-04T00:31:33;9.50;1.00
8633;DHT22;4354;49.832;10.746;2023-06-04T00:34:00;9.50;1.00
8633;DHT22;4354;49.832;10.746;2023-06-04T00:36:26;9.50;1.00
8633;DHT22;4354;49.832;10.746;2023-06-04T00:38:53;9.40;1.00
8633;DHT22;4354;49.832;10.746;2023-06-04T00:41:20;9.30;1.00
8633;DHT22;4354;49.832;10.746;2023-06-04T00:43:47;9.10;1.00
8633;DHT22;4354;49.832;10.746;2023-06-04T00:46:25;9.00;99.90
8633;DHT22;4354;49.832;10.746;2023-06-04T00:48:54;8.90;99.90
8633;DHT22;4354;49.832;10.746;2023-06-04T00:51:22;8.80;1.00
8633;DHT22;4354;49.832;10.746;2023-06-04T00:53:50;8.80;99.90
8633;DHT22;4354;49.832;10.746;2023-06-04T00:56:17;8.80;99.90
8633;DHT22;4354;49.832;10.746;2023-06-04T00:58:45;8.80;99.90
8633;DHT22;4354;49.832;10.746;2023-06-04T01:04:26;8.90;99.90
8633;DHT22;4354;49.832;10.746;2023-06-04T01:06:56;8.90;99.90
8633;DHT22;4354;49.832;10.746;2023-06-04T01:09:26;8.90;1.00
8633;DHT22;4354;49.832;10.746;2023-06-04T01:11:54;8.90;1.00
8633;DHT22;4354;49.832;10.746;2023-06-04T01:14:21;8.90;99.90
8633;DHT22;4354;49.832;10.746;2023-06-04T01:17:07;8.80;1.00
8633;DHT22;4354;49.832;10.746;2023-06-04T01:19:59;8.60;15.40
8633;DHT22;4354;49.832;10.746;2023-06-04T01:25:05;8.40;1.00
8633;DHT22;4354;49.832;10.746;2023-06-04T01:27:34;8.40;99.90
8633;DHT22;4354;49.832;10.746;2023-06-04T01:30:02;8.50;1.00
8633;DHT22;4354;49.832;10.746;2023-06-04T01:32:30;8.50;84.40
8633;DHT22;4354;49.832;10.746;2023-06-04T01:34:57;8.40;99.90
8633;DHT22;4354;49.832;10.746;2023-06-04T01:37:25;8.40;1.00
8633;DHT22;4354;49.832;10.746;2023-06-04T01:39:52;8.50;1.00
8633;DHT22;4354;49.832;10.746;2023-06-04T01:42:19;8.50;1.00
8633;DHT22;4354;49.832;10.746;2023-06-04T01:44:46;8.40;1.00
8633;DHT22;4354;49.832;10.746;2023-06-04T01:47:13;8.40;99.90
8633;DHT22;4354;49.832;10.746;2023-06-04T01:49:40;8.30;1.00
8633;DHT22;4354;49.832;10.746;2023-06-04T01:52:07;8.40;39.00
8633;DHT22;4354;49.832;10.746;2023-06-04T01:54:34;8.40;1.00
8633;DHT22;4354;49.832;10.746;2023-06-04T01:57:00;8.40;1.00
8633;DHT22;4354;49.832;10.746;2023-06-04T01:59:27;8.40;1.00
8633;DHT22;4354;49.832;10.746;2023-06-04T02:01:54;8.40;1.00
8633;DHT22;4354;49.832;10.746;2023-06-04T02:04:21;8.40;1.00
8633;DHT22;4354;49.832;10.746;2023-06-04T02:06:47;8.40;1.00
8633;DHT22;4354;49.832;10.746;2023-06-04T02:09:15;8.30;1.00
8633;DHT22;4354;49.832;10.746;2023-06-04T02:11:42;8.30;1.00
8633;DHT22;4354;49.832;10.746;2023-06-04T02:14:08;8.30;1.00
8633;DHT22;4354;49.832;10.746;2023-06-04T02:16:35;8.30;1.00
8633;DHT22;4354;49.832;10.746;2023-06-04T02:19:02;8.20;1.00
8633;DHT22;4354;49.832;10.746;2023-06-04T02:21:29;8.20;1.00
8633;DHT22;4354;49.832;10.746;2023-06-04T02:23:56;8.20;1.00
8633;DHT22;4354;49.832;10.746;2023-06-04T02:26:23;8.20;1.00
8633;DHT22;4354;49.832;10.746;2023-06-04T02:28:51;8.20;1.00
8633;DHT22;4354;49.832;10.746;2023-06-04T02:31:18;8.20;1.00
8633;DHT22;4354;49.832;10.746;2023-06-04T02:33:45;8.10;1.00
8633;DHT22;4354;49.832;10.746;2023-06-04T02:36:11;8.10;86.20
8633;DHT22;4354;49.832;10.746;2023-06-04T02:38:39;8.00;1.00
8633;DHT22;4354;49.832;10.746;2023-06-04T02:41:05;8.00;99.90
8633;DHT22;4354;49.832;10.746;2023-06-04T02:43:32;7.90;99.90
8633;DHT22;4354;49.832;10.746;2023-06-04T02:45:59;7.90;99.90
8633;DHT22;4354;49.832;10.746;2023-06-04T02:48:26;7.90;99.90
8633;DHT22;4354;49.832;10.746;2023-06-04T02:50:53;7.80;99.90
8633;DHT22;4354;49.832;10.746;2023-06-04T02:53:19;7.80;1.00
8633;DHT22;4354;49.832;10.746;2023-06-04T02:55:47;7.80;1.00
8633;DHT22;4354;49.832;10.746;2023-06-04T02:58:14;7.80;99.90
8633;DHT22;4354;49.832;10.746;2023-06-04T03:00:40;7.70;1.00
8633;DHT22;4354;49.832;10.746;2023-06-04T03:03:08;7.70;99.90
8633;DHT22;4354;49.832;10.746;2023-06-04T03:05:35;7.60;1.00
8633;DHT22;4354;49.832;10.746;2023-06-04T03:08:03;7.60;1.00
8633;DHT22;4354;49.832;10.746;2023-06-04T03:10:30;7.60;99.90
8633;DHT22;4354;49.832;10.746;2023-06-04T03:12:57;7.60;1.00
8633;DHT22;4354;49.832;10.746;2023-06-04T03:15:24;7.50;1.00
8633;DHT22;4354;49.832;10.746;2023-06-04T03:17:51;7.40;99.90
8633;DHT22;4354;49.832;10.746;2023-06-04T03:20:18;7.40;1.00
8633;DHT22;4354;49.832;10.746;2023-06-04T03:22:44;7.40;1.00
8633;DHT22;4354;49.832;10.746;2023-06-04T03:25:11;7.30;99.90
8633;DHT22;4354;49.832;10.746;2023-06-04T03:27:38;7.40;99.90
8633;DHT22;4354;49.832;10.746;2023-06-04T03:30:05;7.30;1.00
8633;DHT22;4354;49.832;10.746;2023-06-04T03:32:32;7.30;99.90
8633;DHT22;4354;49.832;10.746;2023-06-04T03:35:00;7.40;1.00
8633;DHT22;4354;49.832;10.746;2023-06-04T03:37:27;7.30;1.00
8633;DHT22;4354;49.832;10.746;2023-06-04T03:39:54;7.30;1.00
8633;DHT22;4354;49.832;10.746;2023-06-04T03:42:21;7.30;1.00
8633;DHT22;4354;49.832;10.746;2023-06-04T03:44:48;7.20;1.00
8633;DHT22;4354;49.832;10.746;2023-06-04T03:47:14;7.30;1.00
8633;DHT22;4354;49.832;10.746;2023-06-04T03:49:41;7.30;1.00
8633;DHT22;4354;49.832;10.746;2023-06-04T03:52:08;7.30;1.00
8633;DHT22;4354;49.832;10.746;2023-06-04T03:54:34;7.30;1.00
8633;DHT22;4354;49.832;10.746;2023-06-04T03:57:01;7.30;1.00
8633;DHT22;4354;49.832;10.746;2023-06-04T03:59:28;7.40;1.00
8633;DHT22;4354;49.832;10.746;2023-06-04T04:01:55;7.40;1.00
8633;DHT22;4354;49.832;10.746;2023-06-04T04:04:22;7.40;1.00
8633;DHT22;4354;49.832;10.746;2023-06-04T04:06:49;7.40;1.00
8633;DHT22;4354;49.832;10.746;2023-06-04T04:09:16;7.50;99.90
8633;DHT22;4354;49.832;10.746;2023-06-04T04:11:42;7.50;99.90
8633;DHT22;4354;49.832;10.746;2023-06-04T04:14:09;7.50;99.90
8633;DHT22;4354;49.832;10.746;2023-06-04T04:16:36;7.50;20.90
8633;DHT22;4354;49.832;10.746;2023-06-04T04:19:03;7.50;1.00
8633;DHT22;4354;49.832;10.746;2023-06-04T04:21:29;7.60;99.90
8633;DHT22;4354;49.832;10.746;2023-06-04T04:23:56;7.60;50.70
8633;DHT22;4354;49.832;10.746;2023-06-04T04:26:23;7.70;1.00
8633;DHT22;4354;49.832;10.746;2023-06-04T04:28:54;7.70;1.00
8633;DHT22;4354;49.832;10.746;2023-06-04T04:31:26;7.80;1.00
8633;DHT22;4354;49.832;10.746;2023-06-04T04:33:55;7.90;1.00
8633;DHT22;4354;49.832;10.746;2023-06-04T04:36:22;7.90;1.00
8633;DHT22;4354;49.832;10.746;2023-06-04T04:38:50;8.00;1.00
8633;DHT22;4354;49.832;10.746;2023-06-04T04:41:21;8.00;1.00
8633;DHT22;4354;49.832;10.746;2023-06-04T04:43:52;8.10;1.00
8633;DHT22;4354;49.832;10.746;2023-06-04T04:46:19;8.10;1.00
8633;DHT22;4354;49.832;10.746;2023-06-04T04:48:46;8.20;99.90
8633;DHT22;4354;49.832;10.746;2023-06-04T04:51:12;8.20;99.90
8633;DHT22;4354;49.832;10.746;2023-06-04T04:53:39;8.30;99.90
8633;DHT22;4354;49.832;10.746;2023-06-04T04:56:06;8.30;99.90
8633;DHT22;4354;49.832;10.746;2023-06-04T04:58:33;8.40;99.90
8633;DHT22;4354;49.832;10.746;2023-06-04T05:01:00;8.60;99.90
8633;DHT22;4354;49.832;10.746;2023-06-04T05:03:27;8.60;99.90
8633;DHT22;4354;49.832;10.746;2023-06-04T05:05:53;8.70;99.90
8633;DHT22;4354;49.832;10.746;2023-06-04T05:08:20;8.70;99.90
8633;DHT22;4354;49.832;10.746;2023-06-04T05:10:47;8.80;99.90
8633;DHT22;4354;49.832;10.746;2023-06-04T05:13:14;8.90;99.90
8633;DHT22;4354;49.832;10.746;2023-06-04T05:15:41;9.00;99.90
8633;DHT22;4354;49.832;10.746;2023-06-04T05:18:08;9.10;99.90
8633;DHT22;4354;49.832;10.746;2023-06-04T05:20:35;9.20;99.90
8633;DHT22;4354;49.832;10.746;2023-06-04T05:23:04;9.30;99.90
8633;DHT22;4354;49.832;10.746;2023-06-04T05:25:31;9.40;99.90
8633;DHT22;4354;49.832;10.746;2023-06-04T05:27:57;9.50;99.90
8633;DHT22;4354;49.832;10.746;2023-06-04T05:30:24;9.70;99.90
8633;DHT22;4354;49.832;10.746;2023-06-04T05:32:51;9.80;99.90
8633;DHT22;4354;49.832;10.746;2023-06-04T05:35:20;9.90;99.90
8633;DHT22;4354;49.832;10.746;2023-06-04T05:37:47;10.10;1.00
8633;DHT22;4354;49.832;10.746;2023-06-04T05:40:21;10.30;1.00
8633;DHT22;4354;49.832;10.746;2023-06-04T05:42:48;10.40;1.00
8633;DHT22;4354;49.832;10.746;2023-06-04T05:45:15;10.50;1.00
8633;DHT22;4354;49.832;10.746;2023-06-04T05:47:42;10.70;1.00
8633;DHT22;4354;49.832;10.746;2023-06-04T05:50:09;10.80;1.00
8633;DHT22;4354;49.832;10.746;2023-06-04T05:52:36;11.00;1.00
8633;DHT22;4354;49.832;10.746;2023-06-04T05:55:04;11.20;1.00
8633;DHT22;4354;49.832;10.746;2023-06-04T05:57:34;11.30;1.00
8633;DHT22;4354;49.832;10.746;2023-06-04T06:00:01;11.50;1.00
8633;DHT22;4354;49.832;10.746;2023-06-04T06:02:28;11.60;1.00
8633;DHT22;4354;49.832;10.746;2023-06-04T06:04:54;11.90;1.00
8633;DHT22;4354;49.832;10.746;2023-06-04T06:07:21;12.10;1.00
8633;DHT22;4354;49.832;10.746;2023-06-04T06:09:48;12.30;1.00
8633;DHT22;4354;49.832;10.746;2023-06-04T06:12:15;12.60;1.00
8633;DHT22;4354;49.832;10.746;2023-06-04T06:14:43;12.90;99.90
8633;DHT22;4354;49.832;10.746;2023-06-04T06:17:10;13.30;99.90
8633;DHT22;4354;49.832;10.746;2023-06-04T06:19:36;13.70;99.90
8633;DHT22;4354;49.832;10.746;2023-06-04T06:22:04;14.20;99.90
8633;DHT22;4354;49.832;10.746;2023-06-04T06:24:31;14.70;99.90
8633;DHT22;4354;49.832;10.746;2023-06-04T06:26:58;15.40;99.90
8633;DHT22;4354;49.832;10.746;2023-06-04T06:29:25;16.30;99.90
8633;DHT22;4354;49.832;10.746;2023-06-04T06:31:52;17.50;92.00
8633;DHT22;4354;49.832;10.746;2023-06-04T06:34:20;18.60;31.90
8633;DHT22;4354;49.832;10.746;2023-06-04T06:36:46;20.00;4.60
8633;DHT22;4354;49.832;10.746;2023-06-04T06:39:14;21.60;1.00
8633;DHT22;4354;49.832;10.746;2023-06-04T06:41:42;22.50;1.00
8633;DHT22;4354;49.832;10.746;2023-06-04T06:44:08;24.00;1.00
8633;DHT22;4354;49.832;10.746;2023-06-04T06:46:35;25.20;1.00
8633;DHT22;4354;49.832;10.746;2023-06-04T06:49:02;25.80;1.00
8633;DHT22;4354;49.832;10.746;2023-06-04T06:51:29;26.30;1.00
8633;DHT22;4354;49.832;10.746;2023-06-04T06:53:56;27.10;1.00
8633;DHT22;4354;49.832;10.746;2023-06-04T06:56:22;26.80;1.00
8633;DHT22;4354;49.832;10.746;2023-06-04T06:58:49;27.80;1.00
8633;DHT22;4354;49.832;10.746;2023-06-04T07:01:17;28.60;1.00
8633;DHT22;4354;49.832;10.746;2023-06-04T07:03:43;28.70;1.00
8633;DHT22;4354;49.832;10.746;2023-06-04T07:06:10;28.30;1.00
8633;DHT22;4354;49.832;10.746;2023-06-04T07:08:37;28.40;1.00
8633;DHT22;4354;49.832;10.746;2023-06-04T07:11:04;29.00;1.00
8633;DHT22;4354;49.832;10.746;2023-06-04T07:13:31;29.30;1.00
8633;DHT22;4354;49.832;10.746;2023-06-04T07:16:02;29.40;1.00
8633;DHT22;4354;49.832;10.746;2023-06-04T07:18:30;29.80;1.00
8633;DHT22;4354;49.832;10.746;2023-06-04T07:20:58;30.20;1.00
8633;DHT22;4354;49.832;10.746;2023-06-04T07:23:25;30.60;1.00
8633;DHT22;4354;49.832;10.746;2023-06-04T07:25:52;31.30;1.00
8633;DHT22;4354;49.832;10.746;2023-06-04T07:28:19;31.90;1.00
8633;DHT22;4354;49.832;10.746;2023-06-04T07:30:46;32.60;1.00
8633;DHT22;4354;49.832;10.746;2023-06-04T07:33:13;32.80;1.00
8633;DHT22;4354;49.832;10.746;2023-06-04T07:35:40;33.40;1.00
8633;DHT22;4354;49.832;10.746;2023-06-04T07:38:07;33.40;1.00
8633;DHT22;4354;49.832;10.746;2023-06-04T07:40:34;33.50;1.00
8633;DHT22;4354;49.832;10.746;2023-06-04T07:43:00;33.80;1.00
8633;DHT22;4354;49.832;10.746;2023-06-04T07:45:27;34.10;1.00
8633;DHT22;4354;49.832;10.746;2023-06-04T07:47:59;34.00;1.00
8633;DHT22;4354;49.832;10.746;2023-06-04T07:50:26;33.90;1.00
8633;DHT22;4354;49.832;10.746;2023-06-04T07:52:53;34.20;1.00
8633;DHT22;4354;49.832;10.746;2023-06-04T07:55:20;34.50;1.00
8633;DHT22;4354;49.832;10.746;2023-06-04T07:57:46;34.90;1.00
8633;DHT22;4354;49.832;10.746;2023-06-04T08:00:14;34.90;1.00
8633;DHT22;4354;49.832;10.746;2023-06-04T08:02:41;34.70;1.00
8633;DHT22;4354;49.832;10.746;2023-06-04T08:05:08;35.20;1.00
8633;DHT22;4354;49.832;10.746;2023-06-04T08:07:35;34.90;1.00
8633;DHT22;4354;49.832;10.746;2023-06-04T08:10:02;35.40;1.00
8633;DHT22;4354;49.832;10.746;2023-06-04T08:12:29;36.00;1.00
8633;DHT22;4354;49.832;10.746;2023-06-04T08:14:55;35.90;1.00
8633;DHT22;4354;49.832;10.746;2023-06-04T08:17:24;36.00;1.00
8633;DHT22;4354;49.832;10.746;2023-06-04T08:19:51;35.80;1.00
8633;DHT22;4354;49.832;10.746;2023-06-04T08:22:18;36.30;1.00
8633;DHT22;4354;49.832;10.746;2023-06-04T08:24:44;36.70;1.00
8633;DHT22;4354;49.832;10.746;2023-06-04T08:27:11;37.10;1.00
8633;DHT22;4354;49.832;10.746;2023-06-04T08:29:38;37.20;1.00
8633;DHT22;4354;49.832;10.746;2023-06-04T08:32:06;37.00;1.00
8633;DHT22;4354;49.832;10.746;2023-06-04T08:34:34;36.80;1.00
8633;DHT22;4354;49.832;10.746;2023-06-04T08:37:01;37.10;1.00
8633;DHT22;4354;49.832;10.746;2023-06-04T08:39:28;37.30;1.00
8633;DHT22;4354;49.832;10.746;2023-06-04T08:41:59;37.20;1.00
8633;DHT22;4354;49.832;10.746;2023-06-04T08:44:28;37.70;1.00
8633;DHT22;4354;49.832;10.746;2023-06-04T08:47:03;38.40;1.00
8633;DHT22;4354;49.832;10.746;2023-06-04T08:49:34;37.80;1.00
8633;DHT22;4354;49.832;10.746;2023-06-04T08:52:03;37.70;1.00
8633;DHT22;4354;49.832;10.746;2023-06-04T08:54:30;38.20;1.00
8633;DHT22;4354;49.832;10.746;2023-06-04T08:56:58;38.00;1.00
8633;DHT22;4354;49.832;10.746;2023-06-04T08:59:27;37.50;1.00
8633;DHT22;4354;49.832;10.746;2023-06-04T09:01:54;37.50;1.00
8633;DHT22;4354;49.832;10.746;2023-06-04T09:04:22;37.50;1.00
8633;DHT22;4354;49.832;10.746;2023-06-04T09:06:49;38.00;1.00
8633;DHT22;4354;49.832;10.746;2023-06-04T09:09:17;38.00;1.00
8633;DHT22;4354;49.832;10.746;2023-06-04T09:11:51;38.70;1.00
8633;DHT22;4354;49.832;10.746;2023-06-04T09:14:19;39.10;1.00
8633;DHT22;4354;49.832;10.746;2023-06-04T09:16:48;39.20;1.00
8633;DHT22;4354;49.832;10.746;2023-06-04T09:19:16;38.90;1.00
8633;DHT22;4354;49.832;10.746;2023-06-04T09:21:57;39.00;1.00
8633;DHT22;4354;49.832;10.746;2023-06-04T09:24:26;39.30;1.00
8633;DHT22;4354;49.832;10.746;2023-06-04T09:27:15;39.50;1.00
8633;DHT22;4354;49.832;10.746;2023-06-04T09:29:53;39.50;1.00
8633;DHT22;4354;49.832;10.746;2023-06-04T09:32:29;39.30;1.00
8633;DHT22;4354;49.832;10.746;2023-06-04T09:35:12;38.50;1.00
8633;DHT22;4354;49.832;10.746;2023-06-04T09:37:42;37.60;1.00
8633;DHT22;4354;49.832;10.746;2023-06-04T09:40:11;37.30;1.00
8633;DHT22;4354;49.832;10.746;2023-06-04T09:42:51;38.20;1.00
8633;DHT22;4354;49.832;10.746;2023-06-04T09:45:32;37.50;1.00
8633;DHT22;4354;49.832;10.746;2023-06-04T09:47:59;36.70;1.00
8633;DHT22;4354;49.832;10.746;2023-06-04T09:50:32;36.50;1.00
8633;DHT22;4354;49.832;10.746;2023-06-04T09:53:16;37.20;1.00
8633;DHT22;4354;49.832;10.746;2023-06-04T09:55:43;37.40;1.00
8633;DHT22;4354;49.832;10.746;2023-06-04T09:58:11;37.60;1.00
8633;DHT22;4354;49.832;10.746;2023-06-04T10:00:39;38.30;1.00
8633;DHT22;4354;49.832;10.746;2023-06-04T10:03:10;37.80;1.00
8633;DHT22;4354;49.832;10.746;2023-06-04T10:05:42;37.50;1.00
8633;DHT22;4354;49.832;10.746;2023-06-04T10:08:09;37.60;1.00
8633;DHT22;4354;49.832;10.746;2023-06-04T10:10:37;36.50;1.00
8633;DHT22;4354;49.832;10.746;2023-06-04T10:13:09;36.40;1.00
8633;DHT22;4354;49.832;10.746;2023-06-04T10:15:42;37.10;1.00
8633;DHT22;4354;49.832;10.746;2023-06-04T10:18:10;37.70;1.00
8633;DHT22;4354;49.832;10.746;2023-06-04T10:20:38;37.90;1.00
8633;DHT22;4354;49.832;10.746;2023-06-04T10:23:06;38.50;1.00
8633;DHT22;4354;49.832;10.746;2023-06-04T10:25:35;39.00;1.00
8633;DHT22;4354;49.832;10.746;2023-06-04T10:28:02;39.50;1.00
8633;DHT22;4354;49.832;10.746;2023-06-04T10:30:30;39.20;1.00
8633;DHT22;4354;49.832;10.746;2023-06-04T10:32:58;39.00;1.00
8633;DHT22;4354;49.832;10.746;2023-06-04T10:35:32;39.30;1.00
8633;DHT22;4354;49.832;10.746;2023-06-04T10:38:10;39.70;1.00
8633;DHT22;4354;49.832;10.746;2023-06-04T10:40:38;38.50;1.00
8633;DHT22;4354;49.832;10.746;2023-06-04T10:43:14;38.10;1.00
8633;DHT22;4354;49.832;10.746;2023-06-04T10:45:44;38.00;1.00
8633;DHT22;4354;49.832;10.746;2023-06-04T10:48:12;37.00;1.00
8633;DHT22;4354;49.832;10.746;2023-06-04T10:50:51;37.30;1.00
8633;DHT22;4354;49.832;10.746;2023-06-04T10:53:19;37.50;1.00
8633;DHT22;4354;49.832;10.746;2023-06-04T10:55:47;38.00;1.00
8633;DHT22;4354;49.832;10.746;2023-06-04T10:58:15;37.60;1.00
8633;DHT22;4354;49.832;10.746;2023-06-04T11:00:45;37.60;1.00
8633;DHT22;4354;49.832;10.746;2023-06-04T11:03:16;37.60;1.00
8633;DHT22;4354;49.832;10.746;2023-06-04T11:05:45;38.40;1.00
8633;DHT22;4354;49.832;10.746;2023-06-04T11:08:13;37.60;1.00
8633;DHT22;4354;49.832;10.746;2023-06-04T11:10:45;36.50;1.00
8633;DHT22;4354;49.832;10.746;2023-06-04T11:13:12;36.90;1.00
8633;DHT22;4354;49.832;10.746;2023-06-04T11:15:44;37.30;1.00
8633;DHT22;4354;49.832;10.746;2023-06-04T11:18:20;37.10;1.00
8633;DHT22;4354;49.832;10.746;2023-06-04T11:20:49;37.50;1.00
8633;DHT22;4354;49.832;10.746;2023-06-04T11:23:17;37.70;1.00
8633;DHT22;4354;49.832;10.746;2023-06-04T11:25:44;37.80;1.00
8633;DHT22;4354;49.832;10.746;2023-06-04T11:28:16;37.80;1.00
8633;DHT22;4354;49.832;10.746;2023-06-04T11:30:55;37.50;1.00
8633;DHT22;4354;49.832;10.746;2023-06-04T11:33:22;37.40;1.00
8633;DHT22;4354;49.832;10.746;2023-06-04T11:35:49;37.10;1.00
8633;DHT22;4354;49.832;10.746;2023-06-04T11:38:16;36.40;1.00
8633;DHT22;4354;49.832;10.746;2023-06-04T11:40:42;36.00;1.00
8633;DHT22;4354;49.832;10.746;2023-06-04T11:43:11;35.50;1.00
8633;DHT22;4354;49.832;10.746;2023-06-04T11:45:39;35.00;1.00
8633;DHT22;4354;49.832;10.746;2023-06-04T11:48:10;34.90;1.00
8633;DHT22;4354;49.832;10.746;2023-06-04T11:50:37;34.80;1.00
8633;DHT22;4354;49.832;10.746;2023-06-04T11:53:04;34.20;1.00
8633;DHT22;4354;49.832;10.746;2023-06-04T11:55:31;34.00;1.00
8633;DHT22;4354;49.832;10.746;2023-06-04T11:57:59;33.10;1.00
8633;DHT22;4354;49.832;10.746;2023-06-04T12:00:26;32.80;1.00
8633;DHT22;4354;49.832;10.746;2023-06-04T12:02:54;32.10;1.00
8633;DHT22;4354;49.832;10.746;2023-06-04T12:05:27;32.00;1.00
8633;DHT22;4354;49.832;10.746;2023-06-04T12:08:07;31.50;1.00
8633;DHT22;4354;49.832;10.746;2023-06-04T12:10:41;31.40;1.00
8633;DHT22;4354;49.832;10.746;2023-06-04T12:13:09;31.50;1.00
8633;DHT22;4354;49.832;10.746;2023-06-04T12:15:36;31.10;1.00
8633;DHT22;4354;49.832;10.746;2023-06-04T12:18:03;31.00;1.00
8633;DHT22;4354;49.832;10.746;2023-06-04T12:20:35;30.70;1.00
8633;DHT22;4354;49.832;10.746;2023-06-04T12:23:03;30.00;1.00
8633;DHT22;4354;49.832;10.746;2023-06-04T12:25:32;30.10;1.00
8633;DHT22;4354;49.832;10.746;2023-06-04T12:27:59;30.10;1.00
8633;DHT22;4354;49.832;10.746;2023-06-04T12:30:39;30.10;1.00
8633;DHT22;4354;49.832;10.746;2023-06-04T12:33:07;30.30;1.00
8633;DHT22;4354;49.832;10.746;2023-06-04T12:35:34;30.60;1.00
8633;DHT22;4354;49.832;10.746;2023-06-04T12:38:05;30.30;1.00
8633;DHT22;4354;49.832;10.746;2023-06-04T12:40:32;30.30;1.00
8633;DHT22;4354;49.832;10.746;2023-06-04T12:42:59;30.00;1.00
8633;DHT22;4354;49.832;10.746;2023-06-04T12:45:26;29.90;1.00
8633;DHT22;4354;49.832;10.746;2023-06-04T12:47:53;29.70;1.00
8633;DHT22;4354;49.832;10.746;2023-06-04T12:50:20;29.70;1.00
8633;DHT22;4354;49.832;10.746;2023-06-04T12:52:48;29.70;1.00
8633;DHT22;4354;49.832;10.746;2023-06-04T12:55:15;29.80;1.00
8633;DHT22;4354;49.832;10.746;2023-06-04T12:57:42;29.80;1.00
8633;DHT22;4354;49.832;10.746;2023-06-04T13:00:11;29.70;1.00
8633;DHT22;4354;49.832;10.746;2023-06-04T13:02:38;29.80;1.00
8633;DHT22;4354;49.832;10.746;2023-06-04T13:05:05;29.70;1.00
8633;DHT22;4354;49.832;10.746;2023-06-04T13:07:33;29.60;1.00
8633;DHT22;4354;49.832;10.746;2023-06-04T13:10:00;29.50;1.00
8633;DHT22;4354;49.832;10.746;2023-06-04T13:12:27;29.50;1.00
8633;DHT22;4354;49.832;10.746;2023-06-04T13:14:54;29.10;1.00
8633;DHT22;4354;49.832;10.746;2023-06-04T13:17:22;29.10;1.00
8633;DHT22;4354;49.832;10.746;2023-06-04T13:19:49;29.00;1.00
8633;DHT22;4354;49.832;10.746;2023-06-04T13:22:16;28.80;1.00
8633;DHT22;4354;49.832;10.746;2023-06-04T13:24:43;28.90;1.00
8633;DHT22;4354;49.832;10.746;2023-06-04T13:27:10;28.80;1.00
8633;DHT22;4354;49.832;10.746;2023-06-04T13:29:37;28.60;1.00
8633;DHT22;4354;49.832;10.746;2023-06-04T13:32:04;28.60;1.00
8633;DHT22;4354;49.832;10.746;2023-06-04T13:34:32;28.50;1.00
8633;DHT22;4354;49.832;10.746;2023-06-04T13:36:59;28.40;1.00
8633;DHT22;4354;49.832;10.746;2023-06-04T13:39:25;28.40;1.00
8633;DHT22;4354;49.832;10.746;2023-06-04T13:41:52;28.40;1.00
8633;DHT22;4354;49.832;10.746;2023-06-04T13:44:21;28.40;1.00
8633;DHT22;4354;49.832;10.746;2023-06-04T13:46:53;28.40;1.00
8633;DHT22;4354;49.832;10.746;2023-06-04T13:49:20;28.40;1.00
8633;DHT22;4354;49.832;10.746;2023-06-04T13:51:47;28.30;1.00
8633;DHT22;4354;49.832;10.746;2023-06-04T13:54:14;28.10;1.00
8633;DHT22;4354;49.832;10.746;2023-06-04T13:56:41;27.60;1.00
8633;DHT22;4354;49.832;10.746;2023-06-04T13:59:08;27.20;1.00
8633;DHT22;4354;49.832;10.746;2023-06-04T14:01:35;27.20;1.00
8633;DHT22;4354;49.832;10.746;2023-06-04T14:04:02;27.20;1.00
8633;DHT22;4354;49.832;10.746;2023-06-04T14:06:34;27.20;1.00
8633;DHT22;4354;49.832;10.746;2023-06-04T14:09:02;27.40;1.00
8633;DHT22;4354;49.832;10.746;2023-06-04T14:11:30;27.50;1.00
8633;DHT22;4354;49.832;10.746;2023-06-04T14:13:59;27.50;1.00
8633;DHT22;4354;49.832;10.746;2023-06-04T14:16:26;27.50;1.00
8633;DHT22;4354;49.832;10.746;2023-06-04T14:18:53;27.30;1.00
8633;DHT22;4354;49.832;10.746;2023-06-04T14:21:19;27.30;1.00
8633;DHT22;4354;49.832;10.746;2023-06-04T14:23:47;27.40;1.00
8633;DHT22;4354;49.832;10.746;2023-06-04T14:26:17;27.40;1.00
8633;DHT22;4354;49.832;10.746;2023-06-04T14:28:44;27.30;1.00
8633;DHT22;4354;49.832;10.746;2023-06-04T14:31:11;27.40;1.00
8633;DHT22;4354;49.832;10.746;2023-06-04T14:33:38;27.50;1.00
8633;DHT22;4354;49.832;10.746;2023-06-04T14:36:05;27.60;1.00
8633;DHT22;4354;49.832;10.746;2023-06-04T14:38:32;27.50;1.00
8633;DHT22;4354;49.832;10.746;2023-06-04T14:40:59;27.40;1.00
8633;DHT22;4354;49.832;10.746;2023-06-04T14:43:26;27.40;1.00
8633;DHT22;4354;49.832;10.746;2023-06-04T14:45:53;27.10;1.00
8633;DHT22;4354;49.832;10.746;2023-06-04T14:48:19;27.00;1.00
8633;DHT22;4354;49.832;10.746;2023-06-04T14:50:46;26.80;1.00
8633;DHT22;4354;49.832;10.746;2023-06-04T14:53:13;26.70;1.00
8633;DHT22;4354;49.832;10.746;2023-06-04T14:55:41;26.70;1.00
8633;DHT22;4354;49.832;10.746;2023-06-04T14:58:08;26.80;1.00
8633;DHT22;4354;49.832;10.746;2023-06-04T15:00:35;26.70;1.00
8633;DHT22;4354;49.832;10.746;2023-06-04T15:03:02;26.70;1.00
8633;DHT22;4354;49.832;10.746;2023-06-04T15:05:31;26.70;1.00
8633;DHT22;4354;49.832;10.746;2023-06-04T15:07:59;26.70;1.00
8633;DHT22;4354;49.832;10.746;2023-06-04T15:10:26;26.70;1.00
8633;DHT22;4354;49.832;10.746;2023-06-04T15:12:53;26.70;1.00
8633;DHT22;4354;49.832;10.746;2023-06-04T15:15:20;26.60;1.00
8633;DHT22;4354;49.832;10.746;2023-06-04T15:17:48;26.70;1.00
8633;DHT22;4354;49.832;10.746;2023-06-04T15:20:15;26.60;1.00
8633;DHT22;4354;49.832;10.746;2023-06-04T15:22:42;26.50;1.00
8633;DHT22;4354;49.832;10.746;2023-06-04T15:25:09;26.50;1.00
8633;DHT22;4354;49.832;10.746;2023-06-04T15:27:36;26.40;1.00
8633;DHT22;4354;49.832;10.746;2023-06-04T15:30:05;26.40;1.00
8633;DHT22;4354;49.832;10.746;2023-06-04T15:32:32;26.30;1.00
8633;DHT22;4354;49.832;10.746;2023-06-04T15:35:00;26.30;1.00
8633;DHT22;4354;49.832;10.746;2023-06-04T15:37:28;26.20;1.00
8633;DHT22;4354;49.832;10.746;2023-06-04T15:39:54;26.10;1.00
8633;DHT22;4354;49.832;10.746;2023-06-04T15:42:24;25.90;1.00
8633;DHT22;4354;49.832;10.746;2023-06-04T15:44:51;25.50;1.00
8633;DHT22;4354;49.832;10.746;2023-06-04T15:47:18;25.40;1.00
8633;DHT22;4354;49.832;10.746;2023-06-04T15:49:45;25.40;1.00
8633;DHT22;4354;49.832;10.746;2023-06-04T15:52:13;25.40;1.00
8633;DHT22;4354;49.832;10.746;2023-06-04T15:54:40;25.40;1.00
8633;DHT22;4354;49.832;10.746;2023-06-04T15:57:13;25.30;1.00
8633;DHT22;4354;49.832;10.746;2023-06-04T15:59:41;25.40;1.00
8633;DHT22;4354;49.832;10.746;2023-06-04T16:02:08;25.30;1.00
8633;DHT22;4354;49.832;10.746;2023-06-04T16:04:35;25.30;1.00
8633;DHT22;4354;49.832;10.746;2023-06-04T16:07:02;25.20;1.00
8633;DHT22;4354;49.832;10.746;2023-06-04T16:09:29;25.10;1.00
8633;DHT22;4354;49.832;10.746;2023-06-04T16:11:56;25.20;1.00
8633;DHT22;4354;49.832;10.746;2023-06-04T16:14:23;25.10;1.00
8633;DHT22;4354;49.832;10.746;2023-06-04T16:16:50;25.00;1.00